Time;durP1;ratioP1;P1;durP2;ratioP2;P2;SDS_P1;SDS_P2;PMS_P1;PMS_P2;Temp;Humidity;BMP_temperature;BMP_pressure;BME280_temperature;BME280_humidity;BME280_pressure;Samples;Min_cycle;Max_cycle;Signal;HPM_P1;HPM_P2
2022/06/11 00:01:24;;;;;;;0.65;0.65;;;18.70;99.90;;;;;;5008485;28;20200;-77
2022/06/11 00:03:53;;;;;;;0.57;0.57;;;18.70;99.90;;;;;;5009493;28;20216;-76
2022/06/11 00:06:21;;;;;;;0.70;0.70;;;18.60;99.90;;;;;;5009426;28;20237;-77
2022/06/11 00:08:48;;;;;;;0.90;0.90;;;18.60;99.90;;;;;;5007851;28;20283;-77
2022/06/11 00:11:16;;;;;;;0.70;0.70;;;18.50;99.90;;;;;;5007856;28;20201;-76
2022/06/11 00:13:43;;;;;;;0.85;0.80;;;18.60;99.90;;;;;;5008927;28;20220;-75
2022/06/11 00:16:14;;;;;;;0.60;0.60;;;18.50;99.90;;;;;;5010884;28;20199;-77
2022/06/11 00:18:43;;;;;;;0.60;0.60;;;18.50;99.90;;;;;;5006554;28;20519;-77
2022/06/11 00:21:13;;;;;;;0.63;0.63;;;18.50;99.90;;;;;;5009049;28;20196;-77
2022/06/11 00:23:40;;;;;;;0.80;0.80;;;18.40;99.90;;;;;;5006046;28;20220;-77
2022/06/11 00:26:08;;;;;;;0.88;0.88;;;18.40;99.90;;;;;;5008592;28;20663;-76
2022/06/11 00:28:36;;;;;;;0.90;0.70;;;18.40;99.90;;;;;;5005293;28;20255;-77
2022/06/11 00:31:03;;;;;;;0.63;0.63;;;18.50;99.90;;;;;;5009161;28;20203;-77
2022/06/11 00:33:34;;;;;;;0.82;0.82;;;18.50;99.90;;;;;;5002011;28;20654;-77
2022/06/11 00:36:01;;;;;;;0.75;0.75;;;18.50;99.90;;;;;;5003790;28;20281;-77
2022/06/11 00:38:29;;;;;;;0.80;0.80;;;18.50;99.90;;;;;;5004022;28;20224;-77
2022/06/11 00:40:56;;;;;;;0.80;0.80;;;18.50;99.90;;;;;;5004258;28;20193;-77
2022/06/11 00:43:26;;;;;;;0.80;0.80;;;18.40;99.90;;;;;;5003689;28;20216;-77
2022/06/11 00:45:59;;;;;;;0.90;0.90;;;18.30;99.90;;;;;;5008258;28;20193;-77
2022/06/11 00:48:30;;;;;;;1.00;0.90;;;18.30;99.90;;;;;;5006153;28;20309;-77
2022/06/11 00:51:02;;;;;;;1.13;1.10;;;18.20;99.90;;;;;;5007063;28;20231;-78
2022/06/11 00:53:34;;;;;;;1.65;0.90;;;18.20;99.90;;;;;;5004208;28;20227;-77
2022/06/11 00:56:04;;;;;;;0.70;0.70;;;18.20;99.90;;;;;;5011335;28;20192;-77
2022/06/11 00:58:37;;;;;;;0.73;0.73;;;18.20;99.90;;;;;;5004164;28;20219;-77
2022/06/11 01:01:06;;;;;;;0.70;0.70;;;18.20;99.90;;;;;;5007527;28;20235;-77
2022/06/11 01:03:39;;;;;;;0.60;0.60;;;18.20;99.90;;;;;;5007149;28;20305;-76
2022/06/11 01:06:16;;;;;;;0.70;0.70;;;18.20;99.90;;;;;;5005615;28;20204;-77
2022/06/11 01:08:54;;;;;;;0.80;0.80;;;18.20;99.90;;;;;;5004842;28;20227;-77
2022/06/11 01:11:48;;;;;;;0.80;0.80;;;18.20;99.90;;;;;;5009729;28;20688;-77
2022/06/11 01:14:31;;;;;;;0.80;0.80;;;18.10;99.90;;;;;;5007859;28;20306;-77
2022/06/11 01:17:08;;;;;;;0.80;0.80;;;18.10;99.90;;;;;;5004202;28;20203;-77
2022/06/11 01:20:06;;;;;;;0.80;0.80;;;18.00;99.90;;;;;;5004787;28;20216;-77
2022/06/11 01:22:53;;;;;;;0.70;0.70;;;17.90;99.90;;;;;;5005838;28;20208;-77
2022/06/11 01:25:32;;;;;;;0.90;0.90;;;17.90;99.90;;;;;;5006672;28;20717;-78
2022/06/11 01:28:20;;;;;;;0.80;0.80;;;17.80;99.90;;;;;;5005034;28;21544;-77
2022/06/11 01:30:54;;;;;;;0.85;0.85;;;17.80;99.90;;;;;;5003958;28;20227;-77
2022/06/11 01:33:25;;;;;;;0.70;0.70;;;17.80;99.90;;;;;;5007308;28;20242;-77
2022/06/11 01:36:01;;;;;;;0.73;0.73;;;17.80;99.90;;;;;;5007358;28;20203;-76
2022/06/11 01:38:34;;;;;;;0.82;0.82;;;17.80;99.90;;;;;;5009521;23;20219;-75
2022/06/11 01:41:20;;;;;;;0.60;0.60;;;17.80;99.90;;;;;;4980610;28;20190;-75
2022/06/11 01:43:49;;;;;;;0.80;0.80;;;17.80;99.90;;;;;;4979365;28;20299;-75
2022/06/11 01:46:21;;;;;;;0.82;0.82;;;17.70;99.90;;;;;;4982806;28;20252;-75
2022/06/11 01:48:53;;;;;;;0.73;0.73;;;17.60;99.90;;;;;;4982120;28;20221;-75
2022/06/11 01:51:31;;;;;;;0.80;0.80;;;17.50;99.90;;;;;;4982838;28;20731;-75
2022/06/11 01:54:28;;;;;;;0.77;0.77;;;17.50;99.90;;;;;;4983789;28;20224;-75
2022/06/11 01:57:11;;;;;;;0.80;0.80;;;17.50;99.90;;;;;;4979317;28;20713;-75
2022/06/11 01:59:57;;;;;;;0.80;0.80;;;17.50;99.90;;;;;;4981369;28;20596;-75
2022/06/11 02:02:37;;;;;;;0.80;0.80;;;17.50;99.90;;;;;;4987961;28;20189;-75
2022/06/11 02:05:09;;;;;;;0.95;0.95;;;17.40;99.90;;;;;;4991229;28;20704;-75
2022/06/11 02:07:44;;;;;;;0.90;0.90;;;17.40;99.90;;;;;;4983818;28;20213;-75
2022/06/11 02:10:18;;;;;;;0.85;0.85;;;17.30;99.90;;;;;;4982303;28;20220;-75
2022/06/11 02:12:49;;;;;;;0.90;0.90;;;17.40;99.90;;;;;;4981276;28;20200;-75
2022/06/11 02:15:23;;;;;;;0.80;0.80;;;17.30;99.90;;;;;;4981663;28;20221;-74
2022/06/11 02:17:55;;;;;;;0.90;0.90;;;17.30;99.90;;;;;;4981969;28;20196;-75
2022/06/11 02:20:26;;;;;;;0.88;0.88;;;17.30;99.90;;;;;;4981544;28;20232;-75
2022/06/11 02:22:58;;;;;;;0.80;0.80;;;17.30;99.90;;;;;;4977153;28;20272;-75
2022/06/11 02:25:29;;;;;;;0.90;0.90;;;17.20;99.90;;;;;;4978239;28;20236;-75
2022/06/11 02:28:00;;;;;;;0.80;0.80;;;17.20;99.90;;;;;;4982712;28;20211;-75
2022/06/11 02:30:30;;;;;;;0.80;0.80;;;17.20;99.90;;;;;;4980407;28;20220;-75
2022/06/11 02:32:59;;;;;;;0.82;0.82;;;17.10;99.90;;;;;;4980727;28;20197;-75
2022/06/11 02:35:30;;;;;;;0.93;0.93;;;17.10;99.90;;;;;;4982158;28;20754;-75
2022/06/11 02:37:57;;;;;;;0.85;0.85;;;17.10;99.90;;;;;;4978814;28;20197;-76
2022/06/11 02:40:28;;;;;;;0.90;0.90;;;17.10;99.90;;;;;;4982980;28;20231;-76
2022/06/11 02:42:56;;;;;;;0.95;0.95;;;17.10;99.90;;;;;;4982051;28;20287;-75
2022/06/11 02:45:24;;;;;;;1.00;1.00;;;17.00;99.90;;;;;;4985048;28;20227;-75
2022/06/11 02:47:53;;;;;;;0.90;0.90;;;16.90;99.90;;;;;;4983783;28;20214;-75
2022/06/11 02:50:26;;;;;;;0.80;0.80;;;17.00;99.90;;;;;;4981739;28;20220;-76
2022/06/11 02:52:54;;;;;;;0.73;0.60;;;17.00;99.90;;;;;;4981959;28;20201;-76
2022/06/11 02:55:22;;;;;;;0.80;0.80;;;17.00;99.90;;;;;;4988588;28;20244;-76
2022/06/11 02:57:49;;;;;;;0.90;0.90;;;16.90;99.90;;;;;;4981939;28;20667;-76
2022/06/11 03:00:18;;;;;;;0.93;0.93;;;16.90;99.90;;;;;;4980890;28;20224;-76
2022/06/11 03:02:48;;;;;;;0.98;0.95;;;16.90;99.90;;;;;;4981002;28;20821;-75
2022/06/11 03:05:16;;;;;;;1.15;1.00;;;16.90;99.90;;;;;;4984077;28;20305;-74
2022/06/11 03:07:44;;;;;;;1.27;1.20;;;16.80;99.90;;;;;;4983289;28;20235;-76
2022/06/11 03:10:14;;;;;;;0.90;0.90;;;16.70;99.90;;;;;;4979220;28;20214;-75
2022/06/11 03:12:41;;;;;;;1.00;1.00;;;16.70;99.90;;;;;;4982265;28;20671;-73
2022/06/11 03:15:10;;;;;;;0.95;0.95;;;16.70;99.90;;;;;;4982835;28;20700;-75
2022/06/11 03:17:38;;;;;;;0.90;0.90;;;16.70;99.90;;;;;;4981773;28;20271;-76
2022/06/11 03:20:06;;;;;;;0.95;0.95;;;16.70;99.90;;;;;;4981435;28;20726;-76
2022/06/11 03:22:34;;;;;;;1.00;1.00;;;16.70;99.90;;;;;;4983900;28;20289;-77
2022/06/11 03:25:02;;;;;;;1.30;1.20;;;16.60;99.90;;;;;;4980687;28;20735;-77
2022/06/11 03:27:29;;;;;;;0.93;0.93;;;16.50;99.90;;;;;;4983151;28;20213;-77
2022/06/11 03:29:56;;;;;;;1.08;1.08;;;16.50;99.90;;;;;;4981976;28;20221;-81
2022/06/11 03:32:23;;;;;;;0.80;0.80;;;16.50;99.90;;;;;;4984709;28;20207;-77
2022/06/11 03:34:50;;;;;;;1.25;1.00;;;16.50;99.90;;;;;;4984518;28;20220;-76
2022/06/11 03:37:18;;;;;;;0.90;0.90;;;16.50;99.90;;;;;;4983668;28;20279;-77
2022/06/11 03:39:45;;;;;;;1.30;1.20;;;16.50;99.90;;;;;;4984944;28;20233;-78
2022/06/11 03:42:14;;;;;;;0.90;0.90;;;16.50;99.90;;;;;;4980878;28;20208;-75
2022/06/11 03:44:41;;;;;;;1.00;1.00;;;16.40;99.90;;;;;;4985361;28;20248;-78
2022/06/11 03:47:08;;;;;;;0.85;0.85;;;16.40;99.90;;;;;;4981941;28;20194;-78
2022/06/11 03:49:36;;;;;;;1.13;1.13;;;16.40;99.90;;;;;;4985339;28;20726;-78
2022/06/11 03:52:04;;;;;;;0.82;0.80;;;16.40;99.90;;;;;;4979675;28;20222;-77
2022/06/11 03:54:31;;;;;;;1.30;1.00;;;16.40;99.90;;;;;;4985651;28;20221;-77
2022/06/11 03:56:58;;;;;;;0.90;0.90;;;16.50;99.90;;;;;;4982712;28;20201;-76
2022/06/11 03:59:27;;;;;;;0.90;0.90;;;16.50;99.90;;;;;;4982233;28;20221;-76
2022/06/11 04:01:54;;;;;;;0.80;0.80;;;16.50;99.90;;;;;;4982112;28;20200;-76
2022/06/11 04:04:22;;;;;;;1.02;1.02;;;16.50;99.90;;;;;;4984560;28;20224;-76
2022/06/11 04:06:52;;;;;;;0.85;0.85;;;16.60;99.90;;;;;;4985894;28;20569;-75
2022/06/11 04:09:22;;;;;;;0.90;0.90;;;16.70;99.90;;;;;;4983080;28;20859;-76
2022/06/11 04:11:49;;;;;;;1.27;1.00;;;16.80;99.90;;;;;;4984623;28;20229;-76
2022/06/11 04:14:17;;;;;;;1.13;1.13;;;16.90;99.90;;;;;;4983709;28;20863;-78
2022/06/11 04:16:49;;;;;;;0.90;0.90;;;17.00;99.90;;;;;;4985594;28;20200;-75
2022/06/11 04:19:20;;;;;;;0.90;0.90;;;17.00;99.90;;;;;;4986272;28;20516;-74
2022/06/11 04:21:49;;;;;;;1.05;1.05;;;17.10;99.90;;;;;;4981068;28;20682;-76
2022/06/11 04:24:16;;;;;;;1.00;0.90;;;17.20;99.90;;;;;;4983309;28;20225;-75
2022/06/11 04:26:47;;;;;;;1.10;1.10;;;17.30;99.90;;;;;;4984684;28;20204;-75
2022/06/11 04:29:18;;;;;;;2.20;1.45;;;17.40;99.90;;;;;;4985905;28;20224;-74
2022/06/11 04:31:49;;;;;;;0.93;0.93;;;17.50;99.90;;;;;;4984420;28;20232;-73
2022/06/11 04:34:17;;;;;;;1.05;1.05;;;17.50;99.90;;;;;;4988183;28;20248;-74
2022/06/11 04:36:47;;;;;;;1.02;1.02;;;17.60;99.90;;;;;;4988435;28;20427;-75
2022/06/11 04:39:16;;;;;;;1.00;1.00;;;17.70;99.90;;;;;;4981216;28;20226;-74
2022/06/11 04:41:44;;;;;;;1.10;1.10;;;17.70;99.90;;;;;;4999918;28;20185;-75
2022/06/11 04:44:11;;;;;;;1.05;1.05;;;17.70;99.90;;;;;;4982502;28;20229;-76
2022/06/11 04:46:39;;;;;;;1.45;1.30;;;17.80;99.90;;;;;;4986263;28;20205;-75
2022/06/11 04:49:08;;;;;;;1.85;1.08;;;17.90;99.90;;;;;;4985330;28;20225;-75
2022/06/11 04:51:35;;;;;;;1.02;1.02;;;17.90;99.90;;;;;;4984853;28;20217;-75
2022/06/11 04:54:02;;;;;;;1.00;1.00;;;18.10;99.90;;;;;;4981719;28;20626;-75
2022/06/11 04:56:31;;;;;;;0.90;0.90;;;18.20;99.90;;;;;;4980651;28;20201;-75
2022/06/11 04:58:59;;;;;;;1.00;1.00;;;18.20;99.90;;;;;;4982771;28;20784;-75
2022/06/11 05:01:27;;;;;;;0.90;0.90;;;18.30;99.90;;;;;;4983802;28;20193;-75
2022/06/11 05:03:55;;;;;;;1.05;1.05;;;18.30;99.90;;;;;;4983382;28;20600;-75
2022/06/11 05:06:27;;;;;;;1.08;1.08;;;18.40;99.90;;;;;;4988683;28;20200;-75
2022/06/11 05:08:54;;;;;;;1.20;1.20;;;18.40;99.90;;;;;;4981366;28;20235;-75
2022/06/11 05:11:21;;;;;;;1.08;1.08;;;18.30;99.90;;;;;;4985288;28;20320;-75
2022/06/11 05:13:48;;;;;;;1.35;1.00;;;18.40;99.90;;;;;;4985851;28;20232;-74
2022/06/11 05:16:19;;;;;;;1.30;1.25;;;18.40;99.90;;;;;;4980473;28;20197;-75
2022/06/11 05:18:48;;;;;;;1.55;1.33;;;18.40;99.90;;;;;;4984136;28;20699;-75
2022/06/11 05:21:15;;;;;;;1.20;1.10;;;18.50;99.90;;;;;;4982854;28;20201;-74
2022/06/11 05:23:44;;;;;;;1.10;1.00;;;18.50;99.90;;;;;;4984834;28;20197;-74
2022/06/11 05:26:14;;;;;;;2.83;1.42;;;18.60;99.90;;;;;;4984622;28;20208;-75
2022/06/11 05:28:41;;;;;;;1.20;1.10;;;18.60;99.90;;;;;;4982510;28;20217;-75
2022/06/11 05:31:08;;;;;;;1.10;1.10;;;18.70;99.90;;;;;;4983898;28;20213;-75
2022/06/11 05:33:37;;;;;;;1.38;1.27;;;18.60;99.90;;;;;;4999990;28;20196;-75
2022/06/11 05:36:05;;;;;;;1.30;1.20;;;18.60;99.90;;;;;;4990722;28;20193;-75
2022/06/11 05:38:32;;;;;;;4.25;1.35;;;18.70;99.90;;;;;;4979195;28;20228;-74
2022/06/11 05:41:01;;;;;;;1.40;1.30;;;18.70;99.90;;;;;;4981248;28;20217;-75
2022/06/11 05:43:29;;;;;;;1.30;1.20;;;18.60;99.90;;;;;;4985260;28;20201;-75
2022/06/11 05:45:59;;;;;;;1.85;1.25;;;18.70;99.90;;;;;;4985769;28;20224;-75
2022/06/11 05:48:32;;;;;;;1.20;1.10;;;18.90;99.90;;;;;;4984019;28;20217;-75
2022/06/11 05:51:00;;;;;;;1.17;1.17;;;19.10;99.90;;;;;;4980591;28;20245;-75
2022/06/11 05:53:30;;;;;;;1.23;1.17;;;19.20;99.90;;;;;;4981257;28;20197;-74
2022/06/11 05:56:00;;;;;;;3.30;1.40;;;19.40;99.90;;;;;;4983218;28;20699;-75
2022/06/11 05:58:31;;;;;;;1.38;1.23;;;19.40;99.90;;;;;;4984854;28;20596;-75
2022/06/11 06:00:59;;;;;;;1.20;1.20;;;19.30;99.90;;;;;;4982579;28;20214;-75
2022/06/11 06:03:26;;;;;;;1.98;1.38;;;19.40;99.90;;;;;;4987848;28;20691;-74
2022/06/11 06:05:53;;;;;;;2.20;1.23;;;19.50;99.90;;;;;;4988063;28;20220;-74
2022/06/11 06:08:20;;;;;;;3.90;1.27;;;19.40;99.90;;;;;;4986918;28;20193;-75
2022/06/11 06:10:47;;;;;;;1.60;1.50;;;19.50;99.90;;;;;;4984134;28;20297;-75
2022/06/11 06:16:00;;;;;;;3.15;1.60;;;19.40;99.90;;;;;;4987258;28;20256;-75
2022/06/11 06:18:27;;;;;;;1.50;1.40;;;19.40;99.90;;;;;;4988245;28;20220;-74
2022/06/11 06:20:54;;;;;;;1.10;1.00;;;19.50;99.90;;;;;;4986638;28;20213;-74
2022/06/11 06:23:21;;;;;;;1.52;1.38;;;19.60;99.90;;;;;;4983775;28;20216;-75
2022/06/11 06:25:50;;;;;;;1.33;1.23;;;19.70;99.90;;;;;;4991595;28;20229;-74
2022/06/11 06:28:18;;;;;;;1.38;1.30;;;19.80;99.90;;;;;;4999086;28;20197;-75
2022/06/11 06:30:45;;;;;;;1.20;1.08;;;19.90;99.90;;;;;;4984076;28;20221;-75
2022/06/11 06:33:12;;;;;;;1.42;1.33;;;20.10;99.90;;;;;;4984395;28;20193;-74
2022/06/11 06:35:39;;;;;;;2.70;1.30;;;20.10;99.90;;;;;;4985446;28;20235;-75
2022/06/11 06:38:07;;;;;;;2.55;1.58;;;20.20;99.90;;;;;;4985255;28;20287;-75
2022/06/11 06:40:34;;;;;;;1.75;1.35;;;20.00;99.90;;;;;;4983979;28;20216;-75
2022/06/11 06:43:02;;;;;;;1.40;1.30;;;20.00;99.90;;;;;;4981043;28;20699;-75
2022/06/11 06:45:30;;;;;;;2.00;1.40;;;20.10;99.90;;;;;;4984774;28;20699;-75
2022/06/11 06:47:57;;;;;;;1.40;1.30;;;20.10;99.90;;;;;;4980458;28;20201;-75
2022/06/11 06:50:25;;;;;;;1.30;1.20;;;20.30;99.90;;;;;;4985247;28;20883;-75
2022/06/11 06:52:52;;;;;;;1.40;1.30;;;20.50;99.90;;;;;;4985642;28;20224;-75
2022/06/11 06:55:19;;;;;;;1.45;1.30;;;20.70;99.90;;;;;;4985562;28;20228;-74
2022/06/11 06:57:46;;;;;;;1.60;1.50;;;20.70;99.90;;;;;;4987052;28;20453;-75
2022/06/11 07:00:16;;;;;;;1.60;1.50;;;20.90;99.90;;;;;;4982683;28;20217;-73
2022/06/11 07:02:45;;;;;;;1.08;1.08;;;21.20;99.90;;;;;;4983800;28;20197;-72
2022/06/11 07:05:13;;;;;;;1.42;1.20;;;21.50;99.90;;;;;;4984687;28;20645;-74
2022/06/11 07:07:41;;;;;;;1.17;1.17;;;21.80;99.90;;;;;;4984492;28;20229;-75
2022/06/11 07:10:09;;;;;;;1.20;1.10;;;21.90;99.90;;;;;;4985612;28;20227;-74
2022/06/11 07:12:37;;;;;;;2.97;1.60;;;22.00;99.90;;;;;;4984560;28;20229;-75
2022/06/11 07:15:04;;;;;;;2.67;1.10;;;21.90;99.90;;;;;;4985542;28;20221;-74
2022/06/11 07:17:38;;;;;;;1.25;1.13;;;21.80;99.90;;;;;;4981921;28;20208;-75
2022/06/11 07:20:12;;;;;;;1.10;1.10;;;21.90;99.90;;;;;;4999577;28;20230;-75
2022/06/11 07:22:44;;;;;;;1.55;1.45;;;22.20;99.90;;;;;;4975996;28;20229;-75
2022/06/11 07:25:12;;;;;;;1.05;1.05;;;22.30;99.90;;;;;;4983655;28;20231;-75
2022/06/11 07:27:44;;;;;;;1.08;1.08;;;22.40;99.90;;;;;;4976094;28;20209;-75
2022/06/11 07:30:14;;;;;;;1.95;1.15;;;22.60;99.90;;;;;;4981761;28;20235;-74
2022/06/11 07:32:43;;;;;;;1.00;1.00;;;22.90;99.90;;;;;;4983637;28;20852;-75
2022/06/11 07:35:14;;;;;;;1.30;1.20;;;23.00;99.90;;;;;;4988121;28;20224;-75
2022/06/11 07:37:42;;;;;;;1.33;1.02;;;22.80;99.90;;;;;;4984580;28;20196;-74
2022/06/11 07:55:44;;;;;;;2.38;1.40;;;22.80;99.90;;;;;;5315222;23;20236;-79
2022/06/11 07:58:13;;;;;;;1.45;1.27;;;23.00;99.90;;;;;;4978208;28;20201;-77
2022/06/11 08:00:44;;;;;;;1.20;1.20;;;23.10;99.90;;;;;;4976603;28;20229;-78
2022/06/11 08:03:11;;;;;;;1.00;1.00;;;23.40;99.90;;;;;;4980721;28;20208;-79
2022/06/11 08:05:41;;;;;;;2.65;1.10;;;23.50;99.90;;;;;;4978656;28;20232;-79
2022/06/11 08:08:09;;;;;;;2.60;1.40;;;23.60;99.90;;;;;;4980580;28;20256;-79
2022/06/11 08:34:42;;;;;;;1.52;1.17;;;24.10;99.90;;;;;;5654839;23;20230;-80
2022/06/11 08:37:09;;;;;;;1.77;1.00;;;24.30;99.90;;;;;;4968888;28;20638;-79
2022/06/11 08:39:37;;;;;;;1.20;1.10;;;24.20;99.90;;;;;;4970592;28;20209;-79
2022/06/11 08:42:07;;;;;;;1.27;1.20;;;24.40;99.90;;;;;;4968774;28;20229;-80
2022/06/11 08:44:38;;;;;;;1.45;1.30;;;24.50;99.90;;;;;;4963207;29;20203;-80
2022/06/11 08:47:13;;;;;;;1.33;0.90;;;24.80;99.90;;;;;;4958376;28;20640;-81
2022/06/11 08:49:46;;;;;;;1.05;1.05;;;25.20;99.90;;;;;;4953162;28;20206;-83
2022/06/11 08:52:17;;;;;;;1.65;1.10;;;25.40;99.90;;;;;;4957005;28;20228;-81
2022/06/11 08:54:47;;;;;;;1.17;1.08;;;25.30;99.90;;;;;;4965702;28;20209;-80
2022/06/11 08:57:23;;;;;;;0.85;0.85;;;25.10;99.90;;;;;;4969327;28;21067;-81
2022/06/11 09:00:07;;;;;;;1.00;1.00;;;25.30;99.90;;;;;;4968365;28;20495;-83
2022/06/11 09:03:05;;;;;;;0.98;0.90;;;25.50;99.90;;;;;;4963218;28;20217;-81
2022/06/11 09:05:53;;;;;;;1.13;1.02;;;25.70;99.90;;;;;;4944819;28;20202;-83
2022/06/11 09:08:33;;;;;;;1.02;0.98;;;25.80;99.90;;;;;;4967105;28;20603;-82
2022/06/11 09:11:12;;;;;;;1.52;0.95;;;26.00;99.90;;;;;;4967827;28;20235;-82
2022/06/11 09:14:17;;;;;;;1.05;0.90;;;26.00;99.90;;;;;;4970413;28;20198;-83
2022/06/11 09:17:00;;;;;;;1.10;1.00;;;26.00;99.90;;;;;;4964609;28;20217;-82
2022/06/11 09:19:45;;;;;;;1.10;1.00;;;25.90;99.90;;;;;;4967102;28;20214;-83
2022/06/11 09:22:33;;;;;;;2.25;1.00;;;26.00;99.90;;;;;;4960290;28;20237;-84
2022/06/11 09:25:14;;;;;;;1.88;0.90;;;25.90;99.90;;;;;;4968858;28;20206;-83
2022/06/11 09:27:49;;;;;;;0.80;0.80;;;25.90;99.90;;;;;;4961073;28;20221;-85
2022/06/11 09:30:19;;;;;;;0.93;0.90;;;25.90;99.90;;;;;;4968316;28;20202;-82
2022/06/11 09:32:52;;;;;;;1.15;1.05;;;26.10;99.90;;;;;;4967318;28;20639;-84
2022/06/11 09:35:21;;;;;;;1.00;1.00;;;26.20;99.90;;;;;;4960758;28;20213;-84
2022/06/11 09:38:03;;;;;;;0.80;0.80;;;26.20;99.90;;;;;;4962921;28;20225;-84
2022/06/11 09:40:37;;;;;;;0.82;0.80;;;26.30;99.90;;;;;;4965661;28;20917;-84
2022/06/11 09:43:19;;;;;;;1.00;0.90;;;26.70;99.90;;;;;;4963941;28;20575;-84
2022/06/11 09:45:54;;;;;;;1.60;1.00;;;26.90;99.90;;;;;;4963062;28;20316;-84
2022/06/11 09:48:30;;;;;;;0.80;0.80;;;27.20;99.90;;;;;;4966076;28;21086;-83
2022/06/11 09:51:03;;;;;;;1.10;1.00;;;27.30;99.90;;;;;;4962742;28;20221;-84
2022/06/11 09:54:00;;;;;;;0.90;0.90;;;27.30;99.90;;;;;;4967100;28;20206;-82
2022/06/11 09:56:35;;;;;;;1.23;0.80;;;27.20;99.90;;;;;;4965041;28;20225;-84
2022/06/11 09:59:19;;;;;;;1.58;0.93;;;27.10;99.90;;;;;;4962614;28;20197;-83
2022/06/11 10:01:50;;;;;;;2.05;1.05;;;27.00;99.90;;;;;;4962442;28;20221;-83
2022/06/11 10:04:21;;;;;;;1.02;0.88;;;27.00;99.90;;;;;;4967595;28;20412;-83
2022/06/11 10:06:53;;;;;;;1.48;0.80;;;26.90;99.80;;;;;;4967621;28;20233;-84
2022/06/11 10:09:25;;;;;;;0.70;0.70;;;26.90;99.20;;;;;;4965916;28;20297;-84
2022/06/11 10:11:58;;;;;;;0.70;0.70;;;27.10;99.90;;;;;;4965827;28;20590;-84
2022/06/11 10:14:36;;;;;;;2.22;0.95;;;27.10;99.00;;;;;;4967263;28;20684;-83
2022/06/11 10:17:13;;;;;;;0.75;0.73;;;27.10;99.30;;;;;;4964123;28;20912;-83
2022/06/11 10:19:48;;;;;;;0.80;0.80;;;27.10;98.30;;;;;;4963706;28;20617;-83
2022/06/11 10:22:20;;;;;;;0.73;0.73;;;27.20;97.50;;;;;;4965456;28;20225;-82
2022/06/11 10:25:03;;;;;;;1.48;1.08;;;27.20;97.20;;;;;;4965703;28;20209;-83
2022/06/11 10:27:37;;;;;;;0.70;0.70;;;27.40;98.40;;;;;;4965491;28;20328;-82
2022/06/11 10:30:15;;;;;;;2.05;0.88;;;27.60;97.70;;;;;;4965353;28;20676;-84
2022/06/11 10:32:46;;;;;;;1.35;0.80;;;27.60;96.30;;;;;;4963391;28;20240;-85
2022/06/11 10:35:21;;;;;;;0.70;0.70;;;27.60;97.00;;;;;;4965785;28;20208;-83
2022/06/11 10:37:57;;;;;;;0.90;0.82;;;27.60;96.60;;;;;;4966255;28;20221;-84
2022/06/11 10:40:31;;;;;;;0.85;0.80;;;27.90;97.40;;;;;;4965630;28;20204;-85
2022/06/11 10:43:06;;;;;;;0.82;0.82;;;27.90;97.40;;;;;;4966553;28;20225;-85
2022/06/11 10:45:33;;;;;;;0.88;0.73;;;27.80;96.90;;;;;;4965590;28;20243;-84
2022/06/11 10:48:03;;;;;;;0.57;0.57;;;28.20;97.70;;;;;;4965753;28;20241;-85
2022/06/11 10:50:34;;;;;;;0.70;0.70;;;28.30;98.20;;;;;;4964674;28;20197;-84
2022/06/11 10:53:08;;;;;;;0.70;0.70;;;28.50;97.40;;;;;;4964297;28;20299;-86
2022/06/11 10:55:40;;;;;;;1.08;0.70;;;28.40;97.20;;;;;;4966050;28;20389;-84
2022/06/11 10:58:16;;;;;;;0.75;0.75;;;28.50;97.10;;;;;;4962500;28;20232;-85
2022/06/11 11:00:50;;;;;;;0.70;0.70;;;28.40;95.70;;;;;;4966511;28;20208;-82
2022/06/11 11:03:23;;;;;;;0.80;0.80;;;28.60;96.50;;;;;;4966429;28;20224;-84
2022/06/11 11:05:53;;;;;;;0.65;0.65;;;28.60;96.60;;;;;;4964054;28;20714;-84
2022/06/11 11:08:20;;;;;;;0.93;0.80;;;28.50;96.00;;;;;;4964372;28;20201;-79
2022/06/11 11:10:50;;;;;;;0.75;0.70;;;28.50;95.80;;;;;;4965897;28;20342;-87
2022/06/11 11:13:36;;;;;;;0.60;0.60;;;28.60;96.10;;;;;;4965906;28;20221;-83
2022/06/11 11:16:17;;;;;;;0.50;0.50;;;28.80;96.20;;;;;;4963266;28;20201;-84
2022/06/11 11:19:03;;;;;;;0.60;0.60;;;29.20;95.10;;;;;;4967130;28;20288;-83
2022/06/11 11:21:34;;;;;;;0.82;0.82;;;29.30;93.50;;;;;;4967472;28;20221;-82
2022/06/11 11:24:12;;;;;;;0.70;0.70;;;29.20;95.00;;;;;;4963959;28;20565;-81
2022/06/11 11:26:43;;;;;;;0.73;0.73;;;29.00;94.50;;;;;;4966349;28;20248;-80
2022/06/11 11:29:18;;;;;;;0.60;0.60;;;29.00;95.80;;;;;;4969866;28;20198;-83
2022/06/11 11:31:47;;;;;;;0.98;0.98;;;28.90;95.70;;;;;;4967754;28;20239;-84
2022/06/11 11:34:23;;;;;;;0.65;0.65;;;28.90;95.20;;;;;;4969191;28;20229;-84
2022/06/11 11:36:54;;;;;;;1.35;0.80;;;28.90;95.60;;;;;;4965206;28;20240;-84
2022/06/11 11:39:28;;;;;;;0.85;0.77;;;28.90;94.90;;;;;;4964572;28;20916;-82
2022/06/11 11:42:11;;;;;;;1.23;0.65;;;29.00;93.60;;;;;;4962255;28;20296;-84
2022/06/11 11:44:46;;;;;;;0.60;0.60;;;29.00;92.10;;;;;;4965970;28;20201;-83
2022/06/11 11:47:23;;;;;;;0.60;0.60;;;29.00;93.00;;;;;;4967195;28;20703;-84
2022/06/11 11:49:55;;;;;;;0.60;0.60;;;29.10;93.20;;;;;;4969478;28;20232;-85
2022/06/11 11:52:25;;;;;;;1.02;0.80;;;29.20;93.50;;;;;;4962582;28;20232;-84
2022/06/11 11:54:58;;;;;;;0.70;0.70;;;29.20;92.70;;;;;;4962335;28;20204;-81
2022/06/11 11:57:31;;;;;;;1.85;0.85;;;29.30;91.90;;;;;;4967563;28;20232;-84
2022/06/11 12:00:03;;;;;;;0.70;0.70;;;29.30;92.10;;;;;;4968983;28;20253;-84
2022/06/11 12:02:41;;;;;;;0.63;0.63;;;29.40;92.60;;;;;;4966390;28;20218;-84
2022/06/11 12:05:16;;;;;;;0.60;0.60;;;29.40;92.00;;;;;;4963022;28;20201;-84
2022/06/11 12:07:47;;;;;;;0.85;0.80;;;29.50;91.50;;;;;;4968480;28;20237;-85
2022/06/11 12:10:26;;;;;;;1.95;1.30;;;29.60;91.40;;;;;;4964337;28;20687;-84
2022/06/11 12:12:56;;;;;;;1.77;1.67;;;29.70;91.40;;;;;;4968404;28;20237;-83
2022/06/11 12:15:28;;;;;;;1.30;1.20;;;29.80;92.10;;;;;;4965916;28;20463;-82
2022/06/11 12:18:00;;;;;;;1.25;1.10;;;29.90;92.30;;;;;;4964407;28;20239;-82
2022/06/11 12:20:42;;;;;;;0.70;0.70;;;29.90;91.60;;;;;;4969158;28;20205;-83
2022/06/11 12:23:21;;;;;;;1.65;0.77;;;29.90;91.20;;;;;;4966496;28;20213;-81
2022/06/11 12:25:52;;;;;;;1.10;0.73;;;30.00;90.80;;;;;;4966066;28;20202;-82
2022/06/11 12:28:23;;;;;;;0.55;0.55;;;30.00;91.10;;;;;;4968699;28;20702;-84
2022/06/11 12:30:52;;;;;;;0.60;0.60;;;29.90;90.50;;;;;;4967520;28;20270;-84
2022/06/11 12:33:19;;;;;;;0.85;0.80;;;29.90;91.20;;;;;;4967901;28;20249;-84
2022/06/11 12:35:54;;;;;;;0.80;0.70;;;30.00;90.70;;;;;;4970540;28;20306;-84
2022/06/11 12:38:30;;;;;;;0.95;0.70;;;30.30;91.50;;;;;;4967102;28;20328;-82
2022/06/11 12:41:07;;;;;;;0.82;0.60;;;30.40;90.30;;;;;;4966344;28;20201;-83
2022/06/11 12:43:50;;;;;;;0.80;0.70;;;30.20;87.50;;;;;;4971451;28;20202;-82
2022/06/11 12:46:28;;;;;;;0.50;0.50;;;30.20;89.20;;;;;;4967923;28;20233;-83
2022/06/11 12:49:10;;;;;;;0.60;0.60;;;30.50;90.20;;;;;;4970154;28;20280;-82
2022/06/11 12:51:58;;;;;;;0.50;0.50;;;30.70;89.70;;;;;;4973879;28;20237;-81
2022/06/11 12:54:37;;;;;;;0.60;0.60;;;30.70;90.40;;;;;;4978137;28;20232;-81
2022/06/11 12:57:16;;;;;;;0.40;0.40;;;30.60;90.20;;;;;;4966648;28;20795;-81
2022/06/11 13:00:04;;;;;;;0.50;0.43;;;30.50;89.30;;;;;;4966434;28;20229;-81
2022/06/11 13:02:44;;;;;;;0.60;0.60;;;30.40;86.90;;;;;;4968129;28;20703;-83
2022/06/11 13:05:35;;;;;;;1.58;0.60;;;30.30;88.10;;;;;;4970581;28;20221;-81
2022/06/11 13:08:13;;;;;;;0.57;0.57;;;30.40;87.90;;;;;;4935546;28;20241;-82
2022/06/11 13:10:46;;;;;;;0.60;0.60;;;30.60;88.50;;;;;;4968226;28;21277;-82
2022/06/11 13:13:53;;;;;;;0.63;0.63;;;30.60;88.50;;;;;;4969807;28;20217;-83
2022/06/11 13:16:26;;;;;;;0.50;0.50;;;30.50;85.40;;;;;;4969718;28;20205;-83
2022/06/11 13:19:11;;;;;;;0.40;0.40;;;30.40;86.70;;;;;;4970755;28;20228;-83
2022/06/11 13:21:45;;;;;;;0.60;0.60;;;30.50;84.60;;;;;;4970269;28;20225;-81
2022/06/11 13:24:24;;;;;;;0.50;0.50;;;30.80;88.80;;;;;;4970674;28;20223;-81
2022/06/11 13:27:02;;;;;;;0.50;0.50;;;31.00;89.90;;;;;;4967427;28;20229;-81
2022/06/11 13:29:45;;;;;;;0.50;0.50;;;31.20;90.30;;;;;;4973918;28;20656;-82
2022/06/11 13:32:21;;;;;;;0.50;0.50;;;31.10;87.20;;;;;;4968030;28;20248;-81
2022/06/11 13:35:02;;;;;;;0.52;0.52;;;30.90;87.90;;;;;;4968182;28;20229;-83
2022/06/11 13:37:42;;;;;;;1.67;0.73;;;31.00;90.00;;;;;;4959137;28;20240;-82
2022/06/11 13:40:23;;;;;;;0.85;0.57;;;30.80;85.90;;;;;;4965567;28;20201;-81
2022/06/11 13:43:03;;;;;;;0.70;0.70;;;30.90;85.90;;;;;;4963520;28;20229;-81
2022/06/11 13:46:02;;;;;;;0.55;0.55;;;30.80;86.10;;;;;;4959848;28;20209;-82
2022/06/11 13:48:39;;;;;;;0.65;0.65;;;30.70;85.40;;;;;;4963918;28;20217;-83
2022/06/11 13:51:16;;;;;;;0.45;0.45;;;30.70;85.20;;;;;;4965415;28;20204;-82
2022/06/11 13:56:48;;;;;;;1.48;0.70;;;30.80;84.60;;;;;;4965966;28;20739;-82
2022/06/11 13:59:41;;;;;;;0.65;0.60;;;31.00;85.70;;;;;;4965070;28;20660;-82
2022/06/11 14:02:44;;;;;;;0.50;0.50;;;31.10;86.20;;;;;;4961369;28;20804;-82